createdAt,value
2022-11-07T00:00:32.566Z,56.03
2022-11-07T00:02:08.759Z,56.93
2022-11-07T00:03:46.849Z,57.03
2022-11-07T00:05:19.234Z,57.03
2022-11-07T00:06:50.868Z,56.88
2022-11-07T00:08:32.221Z,57.29
2022-11-07T00:10:04.413Z,56.92
2022-11-07T00:11:36.034Z,56.89
2022-11-07T00:13:08.397Z,56.96
2022-11-07T00:14:51.350Z,56.63
2022-11-07T00:16:25.548Z,56.86
2022-11-07T00:18:00.186Z,56.28
2022-11-07T00:19:35.516Z,56.84
2022-11-07T00:21:13.618Z,56.88
2022-11-07T00:22:51.846Z,56.83
2022-11-07T00:24:24.613Z,57.18
2022-11-07T00:26:04.653Z,57.10
2022-11-07T00:27:39.789Z,57.54
2022-11-07T00:29:19.127Z,57.50
2022-11-07T00:31:01.854Z,57.22
2022-11-07T00:32:44.875Z,57.72
2022-11-07T00:34:22.877Z,57.28
2022-11-07T00:36:19.863Z,57.50
2022-11-07T00:38:09.024Z,56.81
2022-11-07T00:39:53.826Z,57.24
2022-11-07T00:41:32.027Z,57.50
2022-11-07T00:43:11.035Z,57.06
2022-11-07T00:44:48.834Z,57.06
2022-11-07T00:46:27.990Z,57.40
2022-11-07T00:48:08.063Z,57.87
2022-11-07T00:49:45.153Z,56.81
2022-11-07T00:51:24.737Z,57.29
2022-11-07T00:53:04.177Z,57.05
2022-11-07T00:54:37.319Z,57.00
2022-11-07T00:56:16.582Z,57.71
2022-11-07T00:57:51.248Z,56.83
2022-11-07T00:59:30.756Z,57.08
2022-11-07T01:01:12.136Z,57.05
2022-11-07T01:02:43.842Z,57.78
2022-11-07T01:04:34.121Z,57.62
2022-11-07T01:06:05.843Z,57.27
2022-11-07T01:07:54.406Z,57.28
2022-11-07T01:09:30.470Z,57.22
2022-11-07T01:11:18.425Z,57.96
2022-11-07T01:12:57.484Z,57.69
2022-11-07T01:14:33.461Z,57.25
2022-11-07T01:16:23.097Z,57.40
2022-11-07T01:17:55.214Z,57.72
2022-11-07T01:19:26.735Z,57.92
2022-11-07T01:20:58.418Z,57.36
2022-11-07T01:22:30.043Z,57.88
2022-11-07T01:24:03.645Z,56.92
2022-11-07T01:25:38.404Z,57.39
2022-11-07T01:27:10.083Z,57.22
2022-11-07T01:28:42.320Z,57.18
2022-11-07T01:30:14.010Z,57.85
2022-11-07T01:31:45.684Z,57.40
2022-11-07T01:33:17.713Z,57.37
2022-11-07T01:34:49.516Z,57.60
2022-11-07T01:36:21.187Z,57.42
2022-11-07T01:37:53.194Z,57.45
2022-11-07T01:39:25.137Z,57.81
2022-11-07T01:41:15.205Z,57.72
2022-11-07T01:42:47.131Z,58.17
2022-11-07T01:44:18.962Z,58.02
2022-11-07T01:45:50.540Z,58.17
2022-11-07T01:47:22.260Z,58.24
2022-11-07T01:49:01.105Z,58.09
2022-11-07T01:50:32.590Z,58.00
2022-11-07T01:52:07.030Z,57.73
2022-11-07T01:53:38.553Z,57.63
2022-11-07T01:55:36.747Z,57.45
2022-11-07T01:57:09.634Z,57.66
2022-11-07T01:58:42.046Z,57.60
2022-11-07T02:00:14.234Z,57.66
2022-11-07T02:01:45.990Z,58.31
2022-11-07T02:03:17.968Z,58.04
2022-11-07T02:04:49.753Z,57.96
2022-11-07T02:06:23.866Z,57.77
2022-11-07T02:07:56.292Z,57.87
2022-11-07T02:09:27.903Z,58.38
2022-11-07T02:11:00.861Z,58.58
2022-11-07T02:12:32.514Z,58.79
2022-11-07T02:14:41.199Z,58.64
2022-11-07T02:16:12.863Z,58.33
2022-11-07T02:17:44.378Z,58.58
2022-11-07T02:19:31.438Z,58.05
2022-11-07T02:21:24.657Z,58.32
2022-11-07T02:23:06.358Z,58.43
2022-11-07T02:24:38.310Z,58.03
2022-11-07T02:26:09.825Z,58.34
2022-11-07T02:27:41.830Z,58.12
2022-11-07T02:29:13.794Z,58.16
2022-11-07T02:30:48.305Z,57.89
2022-11-07T02:32:29.570Z,58.50
2022-11-07T02:34:02.578Z,58.18
2022-11-07T02:35:45.092Z,58.00
2022-11-07T02:37:21.446Z,57.49
2022-11-07T02:39:02.861Z,57.53
2022-11-07T02:40:37.231Z,57.22
2022-11-07T02:42:16.032Z,57.16
2022-11-07T02:43:56.762Z,57.59
2022-11-07T02:45:42.299Z,57.84
2022-11-07T02:47:18.343Z,57.94
2022-11-07T02:48:54.662Z,58.33
2022-11-07T02:50:31.137Z,58.05
2022-11-07T02:52:10.133Z,58.40
2022-11-07T03:06:57.724Z,58.41
2022-11-07T03:08:29.332Z,58.46
2022-11-07T03:10:00.951Z,58.11
2022-11-07T03:11:32.905Z,58.14
2022-11-07T03:13:04.661Z,57.80
2022-11-07T03:14:36.495Z,58.21
2022-11-07T03:16:08.852Z,58.30
2022-11-07T03:17:41.108Z,57.93
2022-11-07T03:19:12.600Z,57.89
2022-11-07T03:20:44.223Z,58.03
2022-11-07T03:22:15.994Z,58.14
2022-11-07T03:23:48.221Z,58.55
2022-11-07T03:25:19.949Z,58.61
2022-11-07T03:26:52.067Z,58.72
2022-11-07T03:28:24.996Z,58.92
2022-11-07T03:29:56.566Z,59.02
2022-11-07T03:31:28.353Z,58.57
2022-11-07T03:33:00.007Z,58.83
2022-11-07T03:34:31.873Z,59.05
2022-11-07T03:36:03.438Z,59.20
2022-11-07T03:37:35.074Z,59.09
2022-11-07T03:39:06.765Z,58.79
2022-11-07T03:40:38.306Z,59.01
2022-11-07T03:42:09.867Z,58.88
2022-11-07T03:43:41.365Z,59.11
2022-11-07T03:45:13.616Z,58.88
2022-11-07T03:46:45.151Z,58.77
2022-11-07T03:48:16.869Z,58.93
2022-11-07T03:49:48.372Z,58.84
2022-11-07T03:51:26.776Z,58.88
2022-11-07T03:53:02.717Z,58.84
2022-11-07T03:54:49.089Z,59.07
2022-11-07T03:56:27.633Z,59.09
2022-11-07T04:00:32.320Z,59.60
2022-11-07T04:02:15.403Z,59.64
2022-11-07T04:03:56.807Z,59.40
2022-11-07T04:05:41.350Z,59.30
2022-11-07T04:07:21.230Z,59.11
2022-11-07T04:09:00.266Z,59.31
2022-11-07T04:21:47.448Z,58.77
2022-11-07T04:23:19.380Z,58.29
2022-11-07T04:24:50.981Z,57.88
2022-11-07T04:26:41.263Z,58.48
2022-11-07T04:28:14.118Z,58.28
2022-11-07T04:29:45.638Z,58.20
2022-11-07T04:31:17.181Z,58.03
2022-11-07T04:32:49.595Z,58.20
2022-11-07T04:34:21.109Z,58.68
2022-11-07T04:35:52.700Z,58.51
2022-11-07T04:37:24.354Z,58.82
2022-11-07T04:38:55.876Z,58.91
2022-11-07T04:40:27.940Z,59.04
2022-11-07T04:41:59.655Z,59.05
2022-11-07T04:43:31.145Z,58.85
2022-11-07T04:45:02.714Z,58.82
2022-11-07T04:46:34.458Z,59.10
2022-11-07T04:48:06.146Z,58.69
2022-11-07T04:49:37.944Z,58.96
2022-11-07T04:51:13.726Z,58.91
2022-11-07T04:52:46.023Z,59.21
2022-11-07T04:54:17.719Z,59.02
2022-11-07T04:55:49.385Z,59.19
2022-11-07T04:57:21.032Z,59.54
2022-11-07T04:58:52.642Z,59.49
2022-11-07T05:00:24.528Z,59.72
2022-11-07T05:01:56.210Z,59.84
2022-11-07T05:03:27.907Z,59.95
2022-11-07T05:04:59.545Z,59.83
2022-11-07T05:06:32.312Z,59.85
2022-11-07T05:08:03.911Z,59.71
2022-11-07T05:09:35.605Z,60.13
2022-11-07T05:11:07.210Z,59.76
2022-11-07T05:12:38.842Z,59.43
2022-11-07T05:14:10.545Z,59.42
2022-11-07T05:15:42.040Z,59.47
2022-11-07T05:17:14.486Z,59.41
2022-11-07T05:18:45.987Z,59.83
2022-11-07T05:20:28.451Z,59.54
2022-11-07T05:22:23.038Z,59.85
2022-11-07T05:23:54.570Z,59.45
2022-11-07T05:25:26.272Z,59.25
2022-11-07T05:26:57.914Z,59.31
2022-11-07T05:28:38.605Z,58.94
2022-11-07T05:30:11.407Z,59.16
2022-11-07T05:31:43.032Z,59.67
2022-11-07T05:33:15.697Z,59.42
2022-11-07T05:34:47.422Z,59.84
2022-11-07T05:36:19.680Z,59.86
2022-11-07T05:37:51.227Z,59.92
2022-11-07T05:39:23.709Z,59.88
2022-11-07T05:40:55.287Z,60.13
2022-11-07T05:42:26.857Z,59.67
2022-11-07T05:43:58.500Z,59.79
2022-11-07T05:45:30.209Z,59.71
2022-11-07T05:47:01.839Z,59.87
2022-11-07T05:48:33.477Z,59.97
2022-11-07T05:50:05.261Z,60.02
2022-11-07T05:51:36.840Z,60.18
2022-11-07T05:53:08.522Z,60.04
2022-11-07T05:54:40.212Z,60.11
2022-11-07T05:56:11.873Z,59.56
2022-11-07T05:57:43.512Z,60.14
2022-11-07T05:59:15.290Z,59.47
2022-11-07T06:00:47.138Z,59.70
2022-11-07T06:02:18.847Z,59.42
2022-11-07T06:03:50.543Z,59.37
2022-11-07T06:05:24.369Z,59.77
2022-11-07T06:06:56.137Z,59.35
2022-11-07T06:08:27.636Z,59.66
2022-11-07T06:09:59.493Z,59.36
2022-11-07T06:11:36.110Z,59.64
2022-11-07T06:13:15.789Z,59.90
2022-11-07T06:19:25.794Z,59.88
2022-11-07T06:20:57.444Z,59.29
2022-11-07T06:22:29.894Z,59.63
2022-11-07T06:24:01.438Z,59.41
2022-11-07T06:25:33.206Z,58.88
2022-11-07T06:27:04.899Z,59.00
2022-11-07T06:28:36.643Z,59.32
2022-11-07T06:30:08.670Z,59.32
2022-11-07T06:31:40.204Z,59.17
2022-11-07T06:33:13.302Z,59.04
2022-11-07T06:34:45.500Z,59.83
2022-11-07T06:36:17.533Z,59.42
2022-11-07T06:37:49.181Z,59.04
2022-11-07T06:39:20.880Z,59.46
2022-11-07T06:40:52.449Z,59.59
2022-11-07T06:42:25.606Z,59.59
2022-11-07T06:43:57.141Z,59.89
2022-11-07T06:45:28.913Z,60.09
2022-11-07T06:47:00.482Z,59.35
2022-11-07T06:48:32.171Z,59.38
2022-11-07T06:50:04.038Z,60.18
2022-11-07T06:51:35.635Z,59.21
2022-11-07T06:53:07.942Z,59.58
2022-11-07T06:54:39.797Z,58.81
2022-11-07T06:56:14.060Z,58.77
2022-11-07T06:57:45.619Z,59.58
2022-11-07T06:59:17.209Z,59.23
2022-11-07T07:00:49.069Z,59.61
2022-11-07T07:02:44.188Z,58.87
2022-11-07T07:04:12.255Z,59.31
2022-11-07T07:05:43.948Z,59.55
2022-11-07T07:07:15.482Z,59.41
2022-11-07T07:08:48.294Z,59.51
2022-11-07T07:10:20.325Z,59.23
2022-11-07T07:11:52.062Z,59.13
2022-11-07T07:13:23.626Z,59.05
2022-11-07T07:14:55.206Z,58.80
2022-11-07T07:16:26.852Z,59.13
2022-11-07T07:18:01.496Z,59.08
2022-11-07T07:19:33.107Z,59.16
2022-11-07T07:21:06.147Z,59.25
2022-11-07T07:22:37.774Z,59.52
2022-11-07T07:24:09.630Z,59.54
2022-11-07T07:25:41.354Z,59.43
2022-11-07T07:27:12.930Z,59.42
2022-11-07T07:28:44.730Z,59.52
2022-11-07T07:30:16.310Z,59.64
2022-11-07T07:31:48.129Z,59.51
2022-11-07T07:33:20.505Z,59.64
2022-11-07T07:34:52.469Z,59.65
2022-11-07T07:36:24.232Z,59.53
2022-11-07T07:37:55.876Z,59.51
2022-11-07T07:39:28.373Z,59.30
2022-11-07T07:41:00.135Z,59.22
2022-11-07T07:42:32.004Z,59.33
2022-11-07T07:44:03.684Z,59.56
2022-11-07T07:45:35.269Z,59.71
2022-11-07T07:47:11.045Z,59.63
2022-11-07T07:48:43.004Z,59.34
2022-11-07T07:50:14.843Z,59.35
2022-11-07T07:51:46.492Z,59.22
2022-11-07T07:53:18.410Z,58.93
2022-11-07T07:54:50.139Z,58.81
2022-11-07T07:56:21.919Z,58.90
2022-11-07T07:57:54.070Z,58.87
2022-11-07T07:59:25.734Z,58.73
2022-11-07T08:01:00.004Z,58.34
2022-11-07T08:02:31.975Z,58.66
2022-11-07T08:04:03.658Z,58.55
2022-11-07T08:05:35.472Z,58.56
2022-11-07T08:07:07.043Z,58.38
2022-11-07T08:08:38.813Z,58.59
2022-11-07T08:10:39.741Z,58.41
2022-11-07T08:12:02.953Z,58.43
2022-11-07T08:13:34.468Z,58.18
2022-11-07T08:15:06.388Z,58.41
2022-11-07T08:16:38.023Z,58.28
2022-11-07T08:18:09.656Z,58.17
2022-11-07T08:19:41.336Z,58.34
2022-11-07T08:21:12.957Z,58.24
2022-11-07T08:22:44.556Z,57.88
2022-11-07T08:24:17.375Z,58.05
2022-11-07T08:25:52.843Z,58.19
2022-11-07T08:27:24.438Z,58.29
2022-11-07T08:28:56.279Z,58.56
2022-11-07T08:30:28.750Z,57.93
2022-11-07T08:32:00.727Z,58.03
2022-11-07T08:33:32.563Z,58.16
2022-11-07T08:35:04.384Z,58.08
2022-11-07T08:36:36.189Z,58.20
2022-11-07T08:38:07.804Z,58.18
2022-11-07T08:39:39.350Z,58.65
2022-11-07T08:41:11.381Z,58.71
2022-11-07T08:42:42.945Z,58.39
2022-11-07T08:44:14.542Z,58.30
2022-11-07T08:45:46.367Z,57.99
2022-11-07T08:47:18.571Z,57.91
2022-11-07T08:48:50.172Z,57.98
2022-11-07T08:50:21.838Z,58.00
2022-11-07T08:51:53.426Z,57.94
2022-11-07T08:53:25.716Z,57.60
2022-11-07T08:54:57.465Z,57.97
2022-11-07T08:56:29.861Z,57.96
2022-11-07T08:58:01.919Z,57.87
2022-11-07T08:59:33.550Z,57.93
2022-11-07T09:01:05.954Z,57.54
2022-11-07T09:04:29.443Z,57.27
2022-11-07T09:06:01.122Z,57.45
2022-11-07T09:07:33.279Z,57.39
2022-11-07T09:09:04.969Z,57.02
2022-11-07T09:10:36.577Z,57.01
2022-11-07T09:12:08.668Z,56.95
2022-11-07T09:13:40.392Z,56.92
2022-11-07T09:15:12.035Z,56.79
2022-11-07T09:16:43.694Z,56.56
2022-11-07T09:18:15.333Z,56.33
2022-11-07T09:19:46.988Z,56.17
2022-11-07T09:21:22.394Z,56.37
2022-11-07T09:22:58.109Z,56.02
2022-11-07T09:24:30.468Z,55.77
2022-11-07T09:26:02.041Z,55.56
2022-11-07T09:27:33.948Z,55.62
2022-11-07T09:29:05.537Z,55.65
2022-11-07T09:30:37.173Z,55.51
2022-11-07T09:32:30.820Z,55.17
2022-11-07T09:34:00.769Z,55.04
2022-11-07T09:35:33.089Z,54.90
2022-11-07T09:37:04.907Z,54.68
2022-11-07T09:38:36.749Z,54.42
2022-11-07T09:40:34.697Z,54.46
2022-11-07T09:42:09.007Z,54.36
2022-11-07T09:43:59.442Z,54.47
2022-11-07T09:45:31.033Z,54.05
2022-11-07T09:47:28.773Z,54.31
2022-11-07T09:49:16.881Z,54.02
2022-11-07T09:50:49.375Z,53.91
2022-11-07T09:52:58.471Z,53.79
2022-11-07T09:54:31.701Z,53.50
2022-11-07T09:56:06.961Z,53.46
2022-11-07T09:57:38.745Z,53.26
2022-11-07T09:59:36.786Z,53.13
2022-11-07T10:01:12.039Z,53.07
2022-11-07T10:02:46.884Z,52.91
2022-11-07T10:04:26.814Z,52.80
2022-11-07T10:05:58.901Z,52.72
2022-11-07T10:07:45.844Z,52.53
2022-11-07T10:09:20.271Z,52.64
2022-11-07T10:11:21.178Z,52.60
2022-11-07T10:13:06.041Z,52.26
2022-11-07T10:14:50.058Z,52.07
2022-11-07T10:16:33.413Z,52.00
2022-11-07T10:18:18.231Z,51.77
2022-11-07T10:19:59.355Z,51.45
2022-11-07T10:21:51.445Z,51.61
2022-11-07T10:23:28.423Z,51.40
2022-11-07T10:25:18.808Z,51.10
2022-11-07T10:26:50.785Z,51.05
2022-11-07T10:28:22.486Z,50.97
2022-11-07T10:29:55.168Z,50.84
2022-11-07T10:31:53.007Z,50.73
2022-11-07T10:33:28.188Z,50.50
2022-11-07T10:35:00.708Z,50.51
2022-11-07T10:36:32.468Z,50.47
2022-11-07T10:38:14.683Z,50.23
2022-11-07T10:39:46.289Z,50.17
2022-11-07T10:41:19.099Z,50.11
2022-11-07T10:42:51.284Z,49.98
2022-11-07T10:44:28.787Z,49.68
2022-11-07T10:46:01.562Z,49.70
2022-11-07T10:47:33.152Z,49.50
2022-11-07T10:49:13.479Z,49.46
2022-11-07T10:50:52.065Z,49.18
2022-11-07T10:52:25.148Z,49.01
2022-11-07T10:53:59.291Z,48.87
2022-11-07T10:55:32.300Z,48.93
2022-11-07T10:57:05.241Z,48.64
2022-11-07T10:58:36.959Z,48.50
2022-11-07T11:00:40.886Z,48.41
2022-11-07T11:02:30.977Z,48.13
2022-11-07T11:04:03.149Z,47.99
2022-11-07T11:05:44.369Z,47.79
2022-11-07T11:07:20.948Z,47.70
2022-11-07T11:08:55.997Z,47.58
2022-11-07T11:10:29.899Z,47.32
2022-11-07T11:12:10.440Z,47.24
2022-11-07T11:13:42.017Z,47.20
2022-11-07T11:15:14.671Z,47.15
2022-11-07T11:16:49.346Z,46.98
2022-11-07T11:18:21.502Z,47.06
2022-11-07T11:19:53.964Z,47.12
2022-11-07T11:21:25.836Z,47.06
2022-11-07T11:22:58.108Z,46.91
2022-11-07T11:24:29.724Z,46.56
2022-11-07T11:26:08.156Z,46.69
2022-11-07T11:27:40.245Z,46.33
2022-11-07T11:29:24.468Z,46.35
2022-11-07T11:30:58.076Z,46.43
2022-11-07T11:32:40.225Z,46.50
2022-11-07T11:34:19.247Z,46.40
2022-11-07T11:35:56.097Z,46.03
2022-11-07T11:37:28.111Z,46.19
2022-11-07T11:38:59.682Z,45.74
2022-11-07T11:40:33.227Z,45.44
2022-11-07T11:42:05.585Z,45.40
2022-11-07T11:43:57.657Z,45.10
2022-11-07T11:45:35.099Z,45.38
2022-11-07T11:47:12.714Z,44.95
2022-11-07T11:48:45.298Z,45.17
2022-11-07T11:50:22.471Z,45.14
2022-11-07T11:51:54.739Z,44.74
2022-11-07T11:53:26.847Z,44.78
2022-11-07T11:54:59.208Z,44.73
2022-11-07T11:56:42.695Z,44.25
2022-11-07T11:58:24.740Z,44.60
2022-11-07T11:59:59.430Z,44.67
2022-11-07T12:01:50.610Z,44.59
2022-11-07T12:03:48.494Z,44.46
2022-11-07T12:05:38.661Z,44.12
2022-11-07T12:07:13.266Z,44.20
2022-11-07T12:08:48.266Z,44.12
2022-11-07T12:10:26.281Z,43.60
2022-11-07T12:11:57.809Z,43.75
2022-11-07T12:13:33.362Z,44.00
2022-11-07T12:15:05.402Z,43.91
2022-11-07T12:16:40.205Z,43.73
2022-11-07T12:18:17.399Z,43.57
2022-11-07T12:19:58.319Z,43.50
2022-11-07T12:21:29.944Z,43.88
2022-11-07T12:23:13.885Z,43.36
2022-11-07T12:24:45.697Z,43.76
2022-11-07T12:26:21.422Z,43.67
2022-11-07T12:27:53.011Z,43.39
2022-11-07T12:29:45.495Z,43.43
2022-11-07T12:31:23.755Z,43.12
2022-11-07T12:33:21.645Z,43.08
2022-11-07T12:35:05.046Z,42.81
2022-11-07T12:36:46.065Z,42.77
2022-11-07T12:38:27.765Z,42.71
2022-11-07T12:40:03.849Z,42.90
2022-11-07T12:41:56.606Z,42.49
2022-11-07T12:43:31.248Z,42.45
2022-11-07T12:45:09.984Z,42.67
2022-11-07T12:46:51.131Z,42.28
2022-11-07T12:48:35.291Z,42.35
2022-11-07T12:50:25.217Z,42.67
2022-11-07T12:52:05.251Z,42.25
2022-11-07T12:53:36.862Z,42.29
2022-11-07T12:55:14.833Z,42.64
2022-11-07T12:56:46.729Z,42.58
2022-11-07T12:58:20.718Z,42.25
2022-11-07T12:59:57.418Z,42.30
2022-11-07T13:01:31.413Z,42.25
2022-11-07T13:03:18.283Z,42.19
2022-11-07T13:05:10.474Z,41.94
2022-11-07T13:06:49.225Z,41.63
2022-11-07T13:08:29.782Z,41.91
2022-11-07T13:10:19.167Z,41.69
2022-11-07T13:12:26.115Z,41.47
2022-11-07T13:14:06.704Z,41.70
2022-11-07T13:16:08.888Z,41.66
2022-11-07T13:17:40.518Z,41.84
2022-11-07T13:19:21.272Z,41.66
2022-11-07T13:21:05.672Z,41.42
2022-11-07T13:22:40.550Z,41.55
2022-11-07T13:24:19.150Z,41.42
2022-11-07T13:25:57.489Z,41.50
2022-11-07T13:27:32.736Z,41.39
2022-11-07T13:29:04.703Z,41.49
2022-11-07T13:30:37.137Z,41.55
2022-11-07T13:32:09.253Z,41.27
2022-11-07T13:47:14.120Z,41.24
2022-11-07T13:48:49.849Z,41.28
2022-11-07T13:50:23.106Z,41.33
2022-11-07T13:51:56.660Z,41.31
2022-11-07T13:53:33.906Z,41.08
2022-11-07T13:55:12.965Z,41.10
2022-11-07T13:57:02.949Z,40.92
2022-11-07T13:58:34.995Z,40.89
2022-11-07T14:00:07.229Z,40.93
2022-11-07T14:01:43.047Z,41.00
2022-11-07T14:03:24.835Z,40.82
2022-11-07T14:06:49.526Z,40.92
2022-11-07T14:08:31.538Z,40.95
2022-11-07T14:10:03.808Z,41.02
2022-11-07T14:11:35.467Z,40.87
2022-11-07T14:13:08.127Z,40.91
2022-11-07T14:14:39.896Z,40.99
2022-11-07T14:16:32.732Z,40.83
2022-11-07T14:18:04.370Z,40.88
2022-11-07T14:19:35.976Z,40.90
2022-11-07T14:21:17.705Z,40.94
2022-11-07T14:22:53.699Z,41.02
2022-11-07T14:24:29.099Z,40.90
2022-11-07T14:26:16.555Z,40.96
2022-11-07T14:27:48.122Z,40.96
2022-11-07T14:29:22.786Z,40.93
2022-11-07T14:30:54.454Z,41.05
2022-11-07T14:32:31.646Z,40.83
2022-11-07T14:34:05.330Z,41.12
2022-11-07T14:35:36.950Z,41.27
2022-11-07T14:37:12.108Z,41.14
2022-11-07T14:38:48.079Z,41.20
2022-11-07T14:40:20.036Z,41.20
2022-11-07T14:41:52.037Z,41.24
2022-11-07T14:43:23.913Z,41.39
2022-11-07T14:44:56.391Z,41.45
2022-11-07T14:46:28.893Z,41.48
2022-11-07T14:48:00.576Z,41.49
2022-11-07T14:49:39.790Z,41.55
2022-11-07T14:51:15.046Z,41.43
2022-11-07T14:52:49.529Z,41.54
2022-11-07T14:54:21.618Z,41.74
2022-11-07T14:55:54.230Z,41.78
2022-11-07T14:57:25.874Z,41.83
2022-11-07T14:58:57.518Z,41.88
2022-11-07T15:00:29.365Z,41.95
2022-11-07T15:02:13.322Z,42.10
2022-11-07T15:03:52.292Z,42.04
2022-11-07T15:05:27.201Z,42.05
2022-11-07T15:06:59.003Z,41.86
2022-11-07T15:08:30.596Z,42.04
2022-11-07T15:10:12.544Z,41.95
2022-11-07T15:11:54.650Z,41.81
2022-11-07T15:13:26.549Z,41.94
2022-11-07T15:15:06.958Z,41.83
2022-11-07T15:16:40.962Z,42.16
2022-11-07T15:18:19.541Z,41.91
2022-11-07T15:20:01.453Z,42.52
2022-11-07T15:21:34.093Z,42.60
2022-11-07T15:23:07.197Z,42.73
2022-11-07T15:24:45.940Z,42.78
2022-11-07T15:26:21.327Z,42.97
2022-11-07T15:27:53.145Z,42.84
2022-11-07T15:29:25.379Z,43.02
2022-11-07T15:31:00.118Z,43.13
2022-11-07T15:32:35.273Z,43.08
2022-11-07T15:34:09.643Z,43.41
2022-11-07T15:35:44.688Z,43.49
2022-11-07T15:37:20.178Z,43.46
2022-11-07T15:38:51.954Z,43.45
2022-11-07T15:40:24.175Z,43.66
2022-11-07T15:41:55.841Z,43.83
2022-11-07T15:43:27.485Z,43.96
2022-11-07T15:44:59.162Z,43.89
2022-11-07T15:46:40.057Z,44.00
2022-11-07T15:48:15.017Z,44.22
2022-11-07T15:49:47.453Z,44.00
2022-11-07T15:51:19.109Z,44.28
2022-11-07T15:52:50.757Z,44.26
2022-11-07T15:54:22.328Z,44.35
2022-11-07T15:55:57.666Z,44.21
2022-11-07T15:57:29.884Z,44.27
2022-11-07T15:59:01.641Z,44.72
2022-11-07T16:00:33.804Z,44.46
2022-11-07T16:02:05.513Z,44.30
2022-11-07T16:03:37.207Z,44.59
2022-11-07T16:05:08.992Z,44.80
2022-11-07T16:06:45.771Z,44.90
2022-11-07T16:08:18.876Z,44.96
2022-11-07T16:09:50.618Z,45.15
2022-11-07T16:11:22.284Z,44.98
2022-11-07T16:12:53.954Z,45.07
2022-11-07T16:16:24.462Z,45.10
2022-11-07T16:17:56.036Z,45.01
2022-11-07T16:19:28.940Z,45.16
2022-11-07T16:21:00.897Z,45.56
2022-11-07T16:22:33.077Z,45.17
2022-11-07T16:24:04.837Z,45.38
2022-11-07T16:25:36.866Z,45.36
2022-11-07T16:27:09.624Z,45.22
2022-11-07T16:28:41.289Z,45.36
2022-11-07T16:30:15.907Z,45.40
2022-11-07T16:31:47.498Z,45.73
2022-11-07T16:33:19.267Z,45.92
2022-11-07T16:34:50.906Z,45.78
2022-11-07T16:36:26.469Z,45.48
2022-11-07T16:37:58.876Z,45.90
2022-11-07T16:39:31.836Z,46.13
2022-11-07T16:41:03.630Z,45.98
2022-11-07T16:42:35.316Z,45.84
2022-11-07T16:44:07.251Z,46.23
2022-11-07T16:45:39.803Z,46.13
2022-11-07T16:47:15.392Z,46.19
2022-11-07T16:48:58.014Z,45.90
2022-11-07T16:50:29.598Z,45.96
2022-11-07T16:52:01.269Z,45.78
2022-11-07T16:53:32.822Z,46.27
2022-11-07T16:55:04.663Z,46.27
2022-11-07T16:56:36.631Z,46.46
2022-11-07T16:58:14.382Z,45.95
2022-11-07T16:59:46.479Z,46.52
2022-11-07T17:01:18.041Z,46.54
2022-11-07T17:02:50.093Z,46.51
2022-11-07T17:04:21.809Z,46.50
2022-11-07T17:05:53.983Z,46.64
2022-11-07T17:07:25.622Z,46.67
2022-11-07T17:09:05.859Z,46.66
2022-11-07T17:10:40.538Z,46.72
2022-11-07T17:12:12.502Z,46.44
2022-11-07T17:13:44.820Z,46.62
2022-11-07T17:15:16.642Z,46.90
2022-11-07T17:16:48.294Z,46.92
2022-11-07T17:18:23.215Z,46.44
2022-11-07T17:19:54.854Z,46.58
2022-11-07T17:21:27.583Z,46.61
2022-11-07T17:22:59.217Z,46.54
2022-11-07T17:24:31.120Z,46.55
2022-11-07T17:26:02.760Z,46.86
2022-11-07T17:27:34.347Z,47.10
2022-11-07T17:29:06.693Z,46.66
2022-11-07T17:30:38.377Z,46.88
2022-11-07T17:32:10.052Z,46.97
2022-11-07T17:33:41.703Z,46.90
2022-11-07T17:37:05.757Z,46.53
2022-11-07T17:38:37.498Z,47.00
2022-11-07T17:40:10.534Z,46.80
2022-11-07T17:41:42.556Z,46.55
2022-11-07T17:43:14.752Z,47.06
2022-11-07T17:44:49.035Z,46.46
2022-11-07T17:46:21.641Z,46.41
2022-11-07T17:47:53.332Z,46.76
2022-11-07T17:49:25.552Z,46.68
2022-11-07T17:50:57.681Z,46.50
2022-11-07T17:52:30.569Z,46.59
2022-11-07T17:54:02.391Z,46.94
2022-11-07T17:55:34.674Z,46.63
2022-11-07T17:57:09.142Z,46.81
2022-11-07T17:58:40.968Z,46.81
2022-11-07T18:00:17.692Z,46.81
2022-11-07T18:01:52.420Z,47.07
2022-11-07T18:03:24.116Z,47.32
2022-11-07T18:04:56.343Z,47.12
2022-11-07T18:06:28.055Z,47.47
2022-11-07T18:08:00.266Z,47.26
2022-11-07T18:09:32.470Z,47.50
2022-11-07T18:11:04.389Z,47.41
2022-11-07T18:12:35.928Z,47.47
2022-11-07T18:14:08.049Z,47.29
2022-11-07T18:15:39.893Z,47.42
2022-11-07T18:17:11.818Z,47.04
2022-11-07T18:18:43.773Z,47.47
2022-11-07T18:20:15.462Z,47.57
2022-11-07T18:21:47.418Z,47.29
2022-11-07T18:23:19.008Z,47.33
2022-11-07T18:24:51.108Z,46.85
2022-11-07T18:26:30.442Z,46.75
2022-11-07T18:28:02.015Z,46.84
2022-11-07T18:29:33.601Z,47.11
2022-11-07T18:31:09.410Z,47.00
2022-11-07T18:32:40.961Z,47.02
2022-11-07T18:34:12.898Z,46.93
2022-11-07T18:35:44.486Z,47.12
2022-11-07T18:37:16.342Z,47.26
2022-11-07T18:38:49.027Z,46.82
2022-11-07T18:40:21.322Z,47.15
2022-11-07T18:41:54.202Z,47.13
2022-11-07T18:43:25.859Z,47.34
2022-11-07T18:44:57.495Z,47.67
2022-11-07T18:46:29.144Z,47.65
2022-11-07T18:48:00.929Z,47.35
2022-11-07T18:49:32.539Z,47.60
2022-11-07T18:51:05.622Z,47.76
2022-11-07T18:52:37.230Z,47.70
2022-11-07T18:54:09.577Z,47.87
2022-11-07T18:55:41.232Z,47.70
2022-11-07T18:57:12.917Z,47.53
2022-11-07T18:58:45.163Z,47.01
2022-11-07T19:00:16.852Z,47.34
2022-11-07T19:01:49.353Z,47.39
2022-11-07T19:03:25.278Z,47.01
2022-11-07T19:04:56.912Z,47.34
2022-11-07T19:06:29.270Z,47.31
2022-11-07T19:08:00.836Z,47.44
2022-11-07T19:09:32.934Z,47.54
2022-11-07T19:11:05.332Z,47.74
2022-11-07T19:12:36.860Z,47.93
2022-11-07T19:14:08.834Z,47.88
2022-11-07T19:15:40.959Z,47.94
2022-11-07T19:17:12.592Z,48.52
2022-11-07T19:18:49.087Z,48.28
2022-11-07T19:20:21.410Z,48.52
2022-11-07T19:21:53.377Z,48.23
2022-11-07T19:23:25.061Z,48.20
2022-11-07T19:24:56.637Z,48.19
2022-11-07T19:26:28.248Z,48.07
2022-11-07T19:28:00.270Z,48.30
2022-11-07T19:29:32.083Z,48.18
2022-11-07T19:31:04.198Z,48.39
2022-11-07T19:32:35.929Z,48.49
2022-11-07T19:34:07.725Z,48.03
2022-11-07T19:35:40.101Z,48.05
2022-11-07T19:37:12.155Z,48.45
2022-11-07T19:38:44.493Z,48.33
2022-11-07T19:40:16.138Z,48.40
2022-11-07T19:41:47.786Z,48.39
2022-11-07T19:43:19.537Z,48.45
2022-11-07T19:44:56.481Z,48.81
2022-11-07T19:46:28.361Z,48.89
2022-11-07T19:47:59.911Z,48.66
2022-11-07T19:49:31.624Z,49.05
2022-11-07T19:51:11.122Z,48.76
2022-11-07T19:52:42.979Z,48.92
2022-11-07T19:54:14.498Z,48.87
2022-11-07T19:55:46.470Z,49.13
2022-11-07T19:57:18.506Z,48.88
2022-11-07T19:58:50.051Z,48.90
2022-11-07T20:00:21.849Z,48.98
2022-11-07T20:02:17.687Z,48.72
2022-11-07T20:03:46.093Z,49.15
2022-11-07T20:05:24.387Z,49.20
2022-11-07T20:06:56.165Z,49.27
2022-11-07T20:08:27.796Z,48.79
2022-11-07T20:10:01.758Z,48.98
2022-11-07T20:11:33.955Z,49.12
2022-11-07T20:13:05.766Z,49.14
2022-11-07T20:14:37.675Z,49.13
2022-11-07T20:16:09.428Z,49.19
2022-11-07T20:17:41.003Z,48.72
2022-11-07T20:19:12.648Z,49.26
2022-11-07T20:20:44.337Z,49.20
2022-11-07T20:22:15.859Z,49.33
2022-11-07T20:23:47.917Z,49.59
2022-11-07T20:25:19.436Z,49.24
2022-11-07T20:26:51.138Z,49.52
2022-11-07T20:28:22.957Z,49.38
2022-11-07T20:29:56.847Z,49.28
2022-11-07T20:31:29.878Z,49.21
2022-11-07T20:33:01.491Z,49.00
2022-11-07T20:34:33.242Z,48.75
2022-11-07T20:36:05.932Z,49.11
2022-11-07T20:37:37.503Z,48.92
2022-11-07T20:39:10.145Z,48.75
2022-11-07T20:40:42.338Z,48.77
2022-11-07T20:42:14.153Z,48.80
2022-11-07T20:43:46.111Z,48.86
2022-11-07T20:45:21.135Z,49.00
2022-11-07T20:46:52.892Z,49.14
2022-11-07T20:48:24.819Z,49.19
2022-11-07T20:49:56.335Z,49.22
2022-11-07T20:51:28.000Z,49.21
2022-11-07T20:53:00.323Z,49.40
2022-11-07T20:54:32.109Z,49.43
2022-11-07T20:56:05.432Z,49.65
2022-11-07T20:57:37.058Z,49.67
2022-11-07T20:59:09.643Z,49.55
2022-11-07T21:00:41.467Z,49.64
2022-11-07T21:02:13.239Z,49.87
2022-11-07T21:03:44.962Z,50.01
2022-11-07T21:05:18.794Z,49.91
2022-11-07T21:06:50.479Z,49.96
2022-11-07T21:08:21.953Z,49.89
2022-11-07T21:09:53.899Z,49.83
2022-11-07T21:11:25.703Z,49.81
2022-11-07T21:12:57.389Z,50.00